Time;durP1;ratioP1;P1;durP2;ratioP2;P2;SDS_P1;SDS_P2;PMS_P1;PMS_P2;Temp;Humidity;BMP_temperature;BMP_pressure;BME280_temperature;BME280_humidity;BME280_pressure;Samples;Min_cycle;Max_cycle;Signal;HPM_P1;HPM_P2
2022/03/24 00:01:44;;;;;;;82.72;40.80;;;;;;;;;;5026902;28;20300;-74
2022/03/24 00:04:10;;;;;;;74.40;36.58;;;;;;;;;;5025298;28;20507;-74
2022/03/24 00:06:36;;;;;;;62.00;29.90;;;;;;;;;;5025679;28;20037;-74
2022/03/24 00:09:02;;;;;;;62.97;28.55;;;;;;;;;;5025605;28;20033;-74
2022/03/24 00:11:28;;;;;;;58.22;27.38;;;;;;;;;;5028662;28;21296;-74
2022/03/24 00:13:54;;;;;;;55.40;26.48;;;;;;;;;;5010928;28;20042;-74
2022/03/24 00:16:20;;;;;;;62.03;29.70;;;;;;;;;;5026765;28;20166;-74
2022/03/24 00:18:47;;;;;;;62.90;30.15;;;;;;;;;;5023110;28;20380;-74
2022/03/24 00:21:13;;;;;;;94.60;36.70;;;;;;;;;;5026678;28;20017;-74
2022/03/24 00:23:39;;;;;;;90.00;37.47;;;;;;;;;;5025249;28;20087;-74
2022/03/24 00:26:05;;;;;;;87.28;38.13;;;;;;;;;;5026539;28;20064;-74
2022/03/24 00:28:33;;;;;;;94.03;42.58;;;;;;;;;;5025150;28;20565;-75
2022/03/24 00:31:01;;;;;;;93.38;42.08;;;;;;;;;;5030159;28;20033;-74
2022/03/24 00:33:27;;;;;;;107.20;46.50;;;;;;;;;;5028488;28;20059;-74
2022/03/24 00:35:53;;;;;;;132.07;54.33;;;;;;;;;;5029575;28;20045;-75
2022/03/24 00:38:19;;;;;;;141.77;58.35;;;;;;;;;;5029015;28;20033;-75
2022/03/24 00:40:45;;;;;;;138.30;56.45;;;;;;;;;;5030083;28;20022;-74
2022/03/24 00:43:12;;;;;;;128.73;54.80;;;;;;;;;;5027584;28;20030;-74
2022/03/24 00:45:41;;;;;;;125.82;55.83;;;;;;;;;;5021312;28;20083;-74
2022/03/24 00:48:10;;;;;;;130.15;52.97;;;;;;;;;;5028908;28;20104;-74
2022/03/24 00:50:37;;;;;;;120.95;53.00;;;;;;;;;;5027839;28;20029;-74
2022/03/24 00:53:04;;;;;;;125.40;51.95;;;;;;;;;;5029249;28;20033;-74
2022/03/24 00:55:30;;;;;;;124.90;54.05;;;;;;;;;;5029209;28;20033;-74
2022/03/24 00:57:56;;;;;;;129.15;52.65;;;;;;;;;;5029605;28;20033;-75
2022/03/24 01:00:28;;;;;;;141.13;56.38;;;;;;;;;;5029348;28;20032;-74
2022/03/24 01:02:54;;;;;;;141.32;59.28;;;;;;;;;;5029808;28;20021;-74
2022/03/24 01:05:27;;;;;;;128.18;55.78;;;;;;;;;;5011854;28;20419;-74
2022/03/24 01:07:54;;;;;;;133.02;57.03;;;;;;;;;;5028236;28;20034;-74
2022/03/24 01:10:20;;;;;;;135.90;56.75;;;;;;;;;;5028443;28;20128;-74
2022/03/24 01:12:47;;;;;;;133.55;56.33;;;;;;;;;;5028367;28;20033;-74
2022/03/24 01:15:14;;;;;;;132.65;55.17;;;;;;;;;;5029515;28;20031;-75
2022/03/24 01:17:41;;;;;;;151.38;58.00;;;;;;;;;;5029911;28;20046;-75
2022/03/24 01:20:08;;;;;;;142.73;57.47;;;;;;;;;;5027211;28;20099;-73
2022/03/24 01:22:35;;;;;;;158.38;60.10;;;;;;;;;;5028308;28;20060;-75
2022/03/24 01:25:01;;;;;;;150.50;61.63;;;;;;;;;;5028411;28;20025;-75
2022/03/24 01:27:28;;;;;;;153.60;61.15;;;;;;;;;;5029190;28;20030;-75
2022/03/24 01:29:55;;;;;;;164.00;64.03;;;;;;;;;;5028371;28;20025;-74
2022/03/24 01:32:21;;;;;;;147.90;59.03;;;;;;;;;;5028146;28;20188;-74
2022/03/24 01:34:48;;;;;;;145.23;52.85;;;;;;;;;;5011444;28;20448;-73
2022/03/24 01:37:14;;;;;;;143.85;55.75;;;;;;;;;;5028252;28;20032;-74
2022/03/24 01:39:40;;;;;;;133.13;52.15;;;;;;;;;;5027910;28;20025;-74
2022/03/24 01:42:06;;;;;;;124.85;50.33;;;;;;;;;;5027142;28;20116;-74
2022/03/24 01:44:33;;;;;;;118.47;49.45;;;;;;;;;;5028948;28;20549;-75
2022/03/24 01:47:03;;;;;;;118.25;48.53;;;;;;;;;;5027722;28;20033;-75
2022/03/24 01:49:31;;;;;;;128.55;48.67;;;;;;;;;;5026249;28;20025;-75
2022/03/24 01:51:58;;;;;;;126.93;49.40;;;;;;;;;;5029140;28;20417;-72
2022/03/24 01:54:25;;;;;;;120.15;48.58;;;;;;;;;;5028450;28;20026;-74
2022/03/24 01:56:52;;;;;;;123.43;47.88;;;;;;;;;;5027555;28;20036;-74
2022/03/24 01:59:19;;;;;;;127.30;48.63;;;;;;;;;;5029294;28;20053;-74
2022/03/24 02:01:46;;;;;;;125.18;48.35;;;;;;;;;;5027897;28;20107;-74
2022/03/24 02:04:14;;;;;;;113.93;47.17;;;;;;;;;;5028219;28;20465;-74
2022/03/24 02:06:40;;;;;;;120.95;48.05;;;;;;;;;;5030306;28;20163;-78
2022/03/24 02:09:06;;;;;;;134.25;50.03;;;;;;;;;;5025673;28;20036;-74
2022/03/24 02:11:33;;;;;;;138.18;50.67;;;;;;;;;;5028702;28;20214;-74
2022/03/24 02:14:00;;;;;;;144.60;50.60;;;;;;;;;;5027871;28;20521;-74
2022/03/24 02:16:30;;;;;;;132.13;50.60;;;;;;;;;;5027946;28;20033;-74
2022/03/24 02:19:00;;;;;;;134.27;50.22;;;;;;;;;;5025724;28;20028;-74
2022/03/24 02:21:26;;;;;;;126.03;49.55;;;;;;;;;;5027906;28;20051;-73
2022/03/24 02:23:52;;;;;;;118.95;47.85;;;;;;;;;;5025554;28;20211;-75
2022/03/24 02:26:18;;;;;;;114.53;46.88;;;;;;;;;;5027468;28;20200;-75
2022/03/24 02:28:45;;;;;;;115.15;45.33;;;;;;;;;;5026217;28;20060;-74
2022/03/24 02:31:15;;;;;;;110.82;43.08;;;;;;;;;;5025920;28;20025;-74
2022/03/24 02:33:41;;;;;;;128.55;48.08;;;;;;;;;;5027688;28;20557;-75
2022/03/24 02:36:07;;;;;;;122.28;46.03;;;;;;;;;;5026018;28;20550;-73
2022/03/24 02:38:35;;;;;;;127.32;50.53;;;;;;;;;;5027971;28;20115;-73
2022/03/24 02:41:01;;;;;;;133.43;48.95;;;;;;;;;;5027037;28;20535;-73
2022/03/24 02:43:27;;;;;;;138.95;48.67;;;;;;;;;;5027494;28;20037;-75
2022/03/24 02:45:54;;;;;;;133.10;46.60;;;;;;;;;;5023585;28;20501;-75
2022/03/24 02:48:23;;;;;;;148.45;51.50;;;;;;;;;;5027609;28;20056;-73
2022/03/24 02:50:49;;;;;;;164.00;56.10;;;;;;;;;;5027170;28;20033;-74
2022/03/24 02:53:19;;;;;;;190.70;59.70;;;;;;;;;;5027046;28;20080;-74
2022/03/24 02:55:45;;;;;;;170.57;60.47;;;;;;;;;;5027742;28;20091;-74
2022/03/24 02:58:11;;;;;;;178.82;61.00;;;;;;;;;;5027421;28;20068;-74
2022/03/24 03:00:38;;;;;;;172.77;58.78;;;;;;;;;;5027293;28;20080;-74
2022/03/24 03:03:04;;;;;;;182.18;60.88;;;;;;;;;;5008244;28;20026;-75
2022/03/24 03:05:30;;;;;;;201.77;62.83;;;;;;;;;;5029127;28;20036;-73
2022/03/24 03:07:56;;;;;;;180.57;60.88;;;;;;;;;;5027612;28;20034;-74
2022/03/24 03:10:22;;;;;;;177.85;60.65;;;;;;;;;;5026691;28;20505;-74
2022/03/24 03:12:48;;;;;;;221.43;68.07;;;;;;;;;;5026719;28;20052;-74
2022/03/24 03:15:14;;;;;;;209.90;67.57;;;;;;;;;;5009712;28;20499;-73
2022/03/24 03:17:40;;;;;;;208.63;67.57;;;;;;;;;;5026906;28;20048;-74
2022/03/24 03:20:07;;;;;;;222.90;69.53;;;;;;;;;;5025607;28;20040;-74
2022/03/24 03:22:33;;;;;;;217.38;68.60;;;;;;;;;;5026503;28;20138;-74
2022/03/24 03:24:59;;;;;;;215.35;66.05;;;;;;;;;;5026699;28;20033;-73
2022/03/24 03:27:27;;;;;;;198.95;66.18;;;;;;;;;;5024890;28;20455;-75
2022/03/24 03:29:53;;;;;;;200.80;64.45;;;;;;;;;;5027052;28;20040;-74
2022/03/24 03:32:21;;;;;;;198.50;66.13;;;;;;;;;;5025750;28;20111;-75
2022/03/24 03:34:48;;;;;;;208.95;68.57;;;;;;;;;;5025573;28;20029;-75
2022/03/24 03:37:14;;;;;;;216.93;67.22;;;;;;;;;;5023407;28;20120;-74
2022/03/24 03:39:41;;;;;;;209.70;68.40;;;;;;;;;;5025613;28;20025;-75
2022/03/24 03:42:08;;;;;;;227.55;69.10;;;;;;;;;;5025842;28;20021;-74
2022/03/24 03:44:34;;;;;;;226.93;70.22;;;;;;;;;;5009408;28;20044;-74
2022/03/24 03:47:01;;;;;;;225.88;71.07;;;;;;;;;;5026619;28;20033;-73
2022/03/24 03:49:27;;;;;;;225.48;71.20;;;;;;;;;;5026714;28;20125;-74
2022/03/24 03:51:54;;;;;;;233.73;71.22;;;;;;;;;;5025961;28;20518;-74
2022/03/24 03:54:21;;;;;;;222.68;69.95;;;;;;;;;;5026445;28;20045;-74
2022/03/24 03:56:47;;;;;;;240.90;73.13;;;;;;;;;;5027197;28;20510;-74
2022/03/24 03:59:13;;;;;;;233.18;69.90;;;;;;;;;;5026664;28;20030;-74
2022/03/24 04:01:40;;;;;;;223.35;71.95;;;;;;;;;;5024399;28;20483;-74
2022/03/24 04:04:12;;;;;;;215.70;69.47;;;;;;;;;;5030030;28;20048;-75
2022/03/24 04:06:38;;;;;;;203.43;67.32;;;;;;;;;;5030071;28;20128;-74
2022/03/24 04:09:04;;;;;;;196.68;62.40;;;;;;;;;;5031071;28;20478;-74
2022/03/24 04:11:30;;;;;;;187.25;58.90;;;;;;;;;;5030165;28;20037;-75
2022/03/24 04:13:56;;;;;;;185.32;58.70;;;;;;;;;;5030260;28;20105;-74
2022/03/24 04:16:22;;;;;;;218.75;63.78;;;;;;;;;;5029523;28;20017;-74
2022/03/24 04:18:49;;;;;;;220.82;67.22;;;;;;;;;;5030588;28;20017;-74
2022/03/24 04:21:16;;;;;;;236.95;72.25;;;;;;;;;;5029458;28;20128;-74
2022/03/24 04:23:42;;;;;;;236.98;73.60;;;;;;;;;;5030336;28;20022;-74
2022/03/24 04:26:11;;;;;;;241.32;71.28;;;;;;;;;;5030725;28;20033;-74
2022/03/24 04:28:37;;;;;;;222.90;71.93;;;;;;;;;;5028909;28;20022;-74
2022/03/24 04:31:03;;;;;;;209.93;66.38;;;;;;;;;;5029817;28;20491;-74
2022/03/24 04:33:30;;;;;;;219.45;65.53;;;;;;;;;;5028823;28;20138;-74
2022/03/24 04:35:58;;;;;;;205.68;66.57;;;;;;;;;;5029573;28;20018;-75
2022/03/24 04:38:24;;;;;;;214.07;62.67;;;;;;;;;;5028029;28;20017;-74
2022/03/24 04:40:50;;;;;;;191.05;60.85;;;;;;;;;;5011669;28;20120;-74
2022/03/24 04:43:16;;;;;;;186.07;59.47;;;;;;;;;;5029888;28;20072;-74
2022/03/24 04:45:42;;;;;;;165.15;56.40;;;;;;;;;;5027681;28;20537;-75
2022/03/24 04:48:08;;;;;;;181.10;57.35;;;;;;;;;;5029079;28;20022;-75
2022/03/24 04:50:34;;;;;;;193.43;60.60;;;;;;;;;;5028693;28;20040;-76
2022/03/24 04:53:00;;;;;;;202.68;61.20;;;;;;;;;;5028361;28;20048;-73
2022/03/24 04:55:26;;;;;;;187.60;59.35;;;;;;;;;;5030212;28;20029;-74
2022/03/24 04:57:52;;;;;;;193.85;61.90;;;;;;;;;;5030990;28;20033;-74
2022/03/24 05:00:18;;;;;;;182.40;55.08;;;;;;;;;;5029379;28;20095;-74
2022/03/24 05:02:45;;;;;;;163.23;53.15;;;;;;;;;;5027853;28;20068;-74
2022/03/24 05:05:11;;;;;;;173.82;53.10;;;;;;;;;;5029772;28;20237;-75
2022/03/24 05:07:39;;;;;;;187.02;55.83;;;;;;;;;;5030061;28;20032;-74
2022/03/24 05:10:06;;;;;;;175.05;54.70;;;;;;;;;;5029015;28;20014;-74
2022/03/24 05:12:32;;;;;;;163.30;52.10;;;;;;;;;;5027204;28;20030;-74
2022/03/24 05:14:59;;;;;;;171.25;52.97;;;;;;;;;;5029664;28;20041;-73
2022/03/24 05:17:25;;;;;;;162.27;50.38;;;;;;;;;;5025811;28;20037;-74
2022/03/24 05:19:52;;;;;;;145.63;49.17;;;;;;;;;;5029085;28;20097;-73
2022/03/24 05:22:18;;;;;;;143.85;46.33;;;;;;;;;;5029405;28;20175;-73
2022/03/24 05:24:44;;;;;;;166.55;50.25;;;;;;;;;;5029869;28;20029;-74
2022/03/24 05:27:11;;;;;;;157.15;51.10;;;;;;;;;;5027267;28;20909;-74
2022/03/24 05:29:37;;;;;;;157.57;50.22;;;;;;;;;;5011582;28;20057;-73
2022/03/24 05:32:04;;;;;;;159.63;53.30;;;;;;;;;;5028571;28;20057;-73
2022/03/24 05:34:31;;;;;;;183.50;55.28;;;;;;;;;;5029737;28;20021;-73
2022/03/24 05:36:57;;;;;;;179.85;53.83;;;;;;;;;;5027549;28;20033;-73
2022/03/24 05:39:23;;;;;;;179.98;56.67;;;;;;;;;;5029594;28;20128;-73
2022/03/24 05:41:49;;;;;;;196.75;56.20;;;;;;;;;;5028008;28;20021;-73
2022/03/24 05:44:15;;;;;;;212.23;60.58;;;;;;;;;;5028631;28;20037;-73
2022/03/24 05:46:44;;;;;;;196.05;59.92;;;;;;;;;;5028806;28;20029;-73
2022/03/24 05:49:13;;;;;;;209.32;61.28;;;;;;;;;;5028429;28;20112;-74
2022/03/24 05:51:39;;;;;;;185.48;60.92;;;;;;;;;;5026680;28;20041;-74
2022/03/24 05:54:05;;;;;;;199.68;60.78;;;;;;;;;;5028258;28;20072;-73
2022/03/24 05:56:31;;;;;;;139.82;49.22;;;;;;;;;;5010963;28;20037;-73
2022/03/24 05:58:57;;;;;;;156.63;49.42;;;;;;;;;;5027295;28;20030;-73
2022/03/24 06:01:24;;;;;;;145.57;50.63;;;;;;;;;;5011059;28;20032;-74
2022/03/24 06:03:51;;;;;;;171.05;56.42;;;;;;;;;;5027650;28;20084;-74
2022/03/24 06:06:18;;;;;;;201.23;59.45;;;;;;;;;;5027887;28;20088;-72
2022/03/24 06:08:44;;;;;;;202.38;62.80;;;;;;;;;;5025682;28;20071;-73
2022/03/24 06:11:13;;;;;;;167.90;56.90;;;;;;;;;;5026636;28;20036;-71
2022/03/24 06:13:42;;;;;;;165.77;58.00;;;;;;;;;;5028534;28;20033;-73
2022/03/24 06:16:09;;;;;;;188.75;62.78;;;;;;;;;;5024607;28;20022;-74
2022/03/24 06:18:39;;;;;;;191.85;64.43;;;;;;;;;;5027336;28;20045;-74
2022/03/24 06:21:05;;;;;;;181.03;63.43;;;;;;;;;;5028271;28;20026;-73
2022/03/24 06:23:31;;;;;;;180.35;61.72;;;;;;;;;;5025742;28;20562;-74
2022/03/24 06:25:58;;;;;;;159.00;59.00;;;;;;;;;;5026352;28;20108;-72
2022/03/24 06:28:24;;;;;;;169.10;62.17;;;;;;;;;;5028040;28;20041;-74
2022/03/24 06:30:51;;;;;;;168.63;59.33;;;;;;;;;;5024593;28;20157;-73
2022/03/24 06:33:17;;;;;;;167.43;60.08;;;;;;;;;;5020572;28;20033;-73
2022/03/24 06:35:44;;;;;;;161.73;58.75;;;;;;;;;;5019397;28;20052;-74
2022/03/24 06:38:11;;;;;;;142.10;55.15;;;;;;;;;;5026019;28;20116;-74
2022/03/24 06:40:38;;;;;;;134.70;54.78;;;;;;;;;;5027899;28;20028;-73
2022/03/24 06:43:04;;;;;;;129.73;54.50;;;;;;;;;;5025965;28;20036;-74
2022/03/24 06:45:31;;;;;;;120.93;50.85;;;;;;;;;;5009749;28;20034;-74
2022/03/24 06:47:57;;;;;;;102.30;47.00;;;;;;;;;;5026595;28;20103;-74
2022/03/24 06:50:23;;;;;;;93.65;46.58;;;;;;;;;;5027328;28;20423;-74
2022/03/24 06:52:49;;;;;;;102.47;45.53;;;;;;;;;;5027713;28;20431;-74
2022/03/24 06:55:16;;;;;;;102.15;44.58;;;;;;;;;;5027683;28;20037;-74
2022/03/24 06:57:42;;;;;;;96.15;43.00;;;;;;;;;;5026539;28;20064;-73
2022/03/24 07:00:13;;;;;;;83.32;41.22;;;;;;;;;;5026340;28;20049;-74
2022/03/24 07:02:39;;;;;;;72.50;36.50;;;;;;;;;;5024228;28;20060;-74
2022/03/24 07:05:07;;;;;;;75.07;37.15;;;;;;;;;;5027461;28;20075;-73
2022/03/24 07:07:35;;;;;;;75.85;35.53;;;;;;;;;;5025675;28;20510;-74
2022/03/24 07:10:01;;;;;;;75.88;36.90;;;;;;;;;;5026820;28;20106;-74
2022/03/24 07:12:27;;;;;;;71.90;35.78;;;;;;;;;;5027944;28;20491;-74
2022/03/24 07:14:53;;;;;;;71.78;35.55;;;;;;;;;;5024278;28;21315;-74
2022/03/24 07:17:19;;;;;;;72.78;35.35;;;;;;;;;;5025373;28;20112;-74
2022/03/24 07:19:46;;;;;;;85.85;36.05;;;;;;;;;;5026650;28;20026;-74
2022/03/24 07:22:12;;;;;;;78.05;41.10;;;;;;;;;;5024931;28;20037;-76
2022/03/24 07:24:38;;;;;;;80.65;42.58;;;;;;;;;;5026378;28;20018;-75
2022/03/24 07:27:05;;;;;;;91.35;42.90;;;;;;;;;;5026486;28;20033;-75
2022/03/24 07:29:31;;;;;;;72.85;40.47;;;;;;;;;;5020836;28;20041;-75
2022/03/24 07:31:57;;;;;;;78.70;41.75;;;;;;;;;;5024781;28;20034;-74
2022/03/24 07:34:24;;;;;;;82.45;44.15;;;;;;;;;;5025577;28;20132;-73
2022/03/24 07:36:50;;;;;;;79.75;41.47;;;;;;;;;;5027619;28;20025;-73
2022/03/24 07:39:15;;;;;;;82.72;41.92;;;;;;;;;;5029834;28;20033;-75
2022/03/24 07:41:42;;;;;;;76.68;40.25;;;;;;;;;;5029031;28;20040;-74
2022/03/24 07:44:08;;;;;;;75.80;39.88;;;;;;;;;;5011802;28;20530;-74
2022/03/24 07:46:34;;;;;;;74.47;40.08;;;;;;;;;;5031294;28;20029;-74
2022/03/24 07:49:00;;;;;;;67.18;38.78;;;;;;;;;;5031190;28;20081;-74
2022/03/24 07:51:26;;;;;;;66.55;37.38;;;;;;;;;;5029725;28;20040;-74
2022/03/24 07:53:55;;;;;;;69.63;37.28;;;;;;;;;;5030510;28;20099;-76
2022/03/24 07:56:24;;;;;;;68.93;37.42;;;;;;;;;;5031802;28;20028;-75
2022/03/24 07:58:50;;;;;;;63.47;36.63;;;;;;;;;;5031754;28;20112;-74
2022/03/24 08:01:24;;;;;;;61.15;36.17;;;;;;;;;;5027261;28;20033;-75
2022/03/24 08:03:52;;;;;;;70.25;37.63;;;;;;;;;;5028018;28;20026;-75
2022/03/24 08:06:18;;;;;;;61.95;35.20;;;;;;;;;;5029372;28;20033;-75
2022/03/24 08:08:44;;;;;;;76.38;35.35;;;;;;;;;;5030003;28;20379;-75
2022/03/24 08:11:10;;;;;;;55.55;34.67;;;;;;;;;;5029516;28;20036;-75
2022/03/24 08:13:36;;;;;;;59.00;34.65;;;;;;;;;;5027986;28;20030;-74
2022/03/24 08:16:03;;;;;;;62.00;34.30;;;;;;;;;;5008758;28;20111;-73
2022/03/24 08:18:29;;;;;;;62.75;35.50;;;;;;;;;;5030243;28;20049;-73
2022/03/24 08:20:55;;;;;;;60.47;33.60;;;;;;;;;;5028477;28;20030;-73
2022/03/24 08:23:21;;;;;;;62.70;33.78;;;;;;;;;;5028794;28;20026;-74
2022/03/24 08:25:47;;;;;;;58.67;34.33;;;;;;;;;;5028790;28;20033;-74
2022/03/24 08:28:13;;;;;;;54.78;32.92;;;;;;;;;;5024153;28;20033;-74
2022/03/24 08:30:44;;;;;;;70.05;33.50;;;;;;;;;;5028666;28;20029;-75
2022/03/24 08:33:11;;;;;;;56.58;33.38;;;;;;;;;;5029088;28;20096;-75
2022/03/24 08:35:37;;;;;;;57.92;33.40;;;;;;;;;;5000959;28;20091;-74
2022/03/24 08:38:04;;;;;;;49.03;32.00;;;;;;;;;;5030064;28;20037;-75
2022/03/24 08:40:30;;;;;;;51.05;30.90;;;;;;;;;;5028993;28;20033;-75
2022/03/24 08:42:56;;;;;;;56.78;32.25;;;;;;;;;;5029225;28;20475;-74
2022/03/24 08:45:22;;;;;;;52.45;30.73;;;;;;;;;;5028862;28;20108;-75
2022/03/24 08:47:48;;;;;;;51.85;28.67;;;;;;;;;;5028502;28;20037;-73
2022/03/24 08:50:15;;;;;;;45.70;28.67;;;;;;;;;;5030052;28;20490;-73
2022/03/24 08:52:41;;;;;;;62.30;32.42;;;;;;;;;;5028823;28;20112;-73
2022/03/24 08:55:08;;;;;;;49.67;31.17;;;;;;;;;;5027772;28;20029;-74
2022/03/24 08:57:35;;;;;;;48.22;30.65;;;;;;;;;;5029279;28;20044;-75
2022/03/24 09:00:02;;;;;;;47.47;30.52;;;;;;;;;;5028626;28;20120;-75
2022/03/24 09:02:28;;;;;;;41.13;29.90;;;;;;;;;;5030405;28;20037;-75
2022/03/24 09:04:54;;;;;;;43.85;30.35;;;;;;;;;;5030492;28;20026;-75
2022/03/24 09:07:20;;;;;;;39.75;27.10;;;;;;;;;;5028964;28;20034;-75
2022/03/24 09:09:46;;;;;;;45.63;28.02;;;;;;;;;;5022731;28;20044;-74
2022/03/24 09:12:13;;;;;;;35.03;25.52;;;;;;;;;;5028986;28;20021;-74
2022/03/24 09:14:39;;;;;;;40.30;26.05;;;;;;;;;;5029873;28;20064;-74
2022/03/24 09:17:06;;;;;;;38.05;25.00;;;;;;;;;;5029637;28;20029;-74
2022/03/24 09:19:33;;;;;;;44.28;28.60;;;;;;;;;;5028725;28;20503;-75
2022/03/24 09:22:00;;;;;;;41.20;28.25;;;;;;;;;;5029044;28;20112;-75
2022/03/24 09:24:26;;;;;;;45.35;30.10;;;;;;;;;;5030459;28;20626;-75
2022/03/24 09:26:52;;;;;;;44.00;30.75;;;;;;;;;;5028535;28;20033;-75
2022/03/24 09:29:18;;;;;;;40.28;30.70;;;;;;;;;;5028238;28;20501;-75
2022/03/24 09:31:45;;;;;;;48.30;31.25;;;;;;;;;;5029990;28;20033;-74
2022/03/24 09:34:11;;;;;;;44.08;31.52;;;;;;;;;;5028980;28;20119;-74
2022/03/24 09:36:37;;;;;;;47.65;30.83;;;;;;;;;;5014630;28;20025;-74
2022/03/24 09:39:04;;;;;;;47.88;29.50;;;;;;;;;;5026850;28;20672;-73
2022/03/24 09:41:30;;;;;;;48.30;29.90;;;;;;;;;;5029488;28;20025;-75
2022/03/24 09:43:58;;;;;;;41.95;30.00;;;;;;;;;;5030050;28;20030;-74
2022/03/24 09:46:27;;;;;;;40.45;29.67;;;;;;;;;;5029064;28;20115;-75
2022/03/24 09:48:53;;;;;;;44.35;28.55;;;;;;;;;;5029770;28;20029;-73
2022/03/24 09:51:19;;;;;;;47.33;30.35;;;;;;;;;;5029399;28;20030;-73
2022/03/24 09:53:46;;;;;;;37.67;29.13;;;;;;;;;;5029700;28;20128;-74
2022/03/24 09:56:12;;;;;;;40.72;28.92;;;;;;;;;;5028287;28;20035;-74
2022/03/24 09:58:38;;;;;;;41.47;29.30;;;;;;;;;;5026674;28;20394;-73
2022/03/24 10:01:04;;;;;;;42.83;29.65;;;;;;;;;;5027284;28;20105;-74
2022/03/24 10:03:30;;;;;;;43.20;30.55;;;;;;;;;;5029475;28;20026;-74
2022/03/24 10:05:58;;;;;;;49.35;30.48;;;;;;;;;;5029242;28;20041;-73
2022/03/24 10:08:25;;;;;;;45.38;31.58;;;;;;;;;;5028535;28;20410;-73
2022/03/24 10:10:56;;;;;;;41.33;29.13;;;;;;;;;;5019503;28;20036;-75
2022/03/24 10:13:44;;;;;;;41.75;30.67;;;;;;;;;;5028611;28;20037;-73
2022/03/24 10:16:11;;;;;;;46.67;31.98;;;;;;;;;;5027585;28;20040;-74
2022/03/24 10:18:37;;;;;;;43.17;30.52;;;;;;;;;;5024559;28;20079;-74
2022/03/24 10:21:04;;;;;;;47.88;30.83;;;;;;;;;;5027017;28;20034;-74
2022/03/24 10:23:33;;;;;;;40.78;30.13;;;;;;;;;;5028500;28;20065;-74
2022/03/24 10:26:05;;;;;;;47.30;29.40;;;;;;;;;;5026610;28;20091;-74
2022/03/24 10:28:31;;;;;;;44.20;29.00;;;;;;;;;;5026887;28;20752;-74
2022/03/24 10:31:03;;;;;;;42.38;30.30;;;;;;;;;;5029345;28;20452;-73
2022/03/24 10:33:30;;;;;;;38.45;28.20;;;;;;;;;;5029044;28;20037;-73
2022/03/24 10:36:13;;;;;;;41.95;30.15;;;;;;;;;;5028534;28;20144;-74
2022/03/24 10:38:40;;;;;;;43.25;29.73;;;;;;;;;;5028742;28;20303;-74
2022/03/24 10:41:18;;;;;;;38.60;28.85;;;;;;;;;;5027539;28;20052;-73
2022/03/24 10:43:45;;;;;;;47.72;29.98;;;;;;;;;;5028726;28;20483;-74
2022/03/24 10:46:18;;;;;;;42.08;29.25;;;;;;;;;;5018100;28;20030;-73
2022/03/24 10:48:44;;;;;;;39.63;28.52;;;;;;;;;;5028076;28;20030;-74
2022/03/24 10:51:10;;;;;;;38.38;27.80;;;;;;;;;;5028591;28;20088;-74
2022/03/24 10:53:40;;;;;;;38.30;27.55;;;;;;;;;;5028443;28;20507;-74
2022/03/24 10:56:14;;;;;;;39.65;28.02;;;;;;;;;;5029083;28;20025;-74
2022/03/24 10:58:42;;;;;;;35.33;25.30;;;;;;;;;;5028990;28;20025;-74
2022/03/24 11:01:10;;;;;;;35.97;26.60;;;;;;;;;;5023097;28;20043;-74
2022/03/24 11:03:37;;;;;;;41.20;26.73;;;;;;;;;;5026719;28;20426;-73
2022/03/24 11:06:05;;;;;;;41.72;27.75;;;;;;;;;;5028498;28;20033;-72
2022/03/24 11:08:31;;;;;;;37.95;27.75;;;;;;;;;;5027312;28;20026;-74
2022/03/24 11:10:57;;;;;;;35.45;22.35;;;;;;;;;;5027496;28;20509;-75
2022/03/24 11:13:26;;;;;;;40.67;22.35;;;;;;;;;;5027443;28;20121;-74
2022/03/24 11:15:53;;;;;;;41.20;27.88;;;;;;;;;;5026134;28;20044;-73
2022/03/24 11:18:20;;;;;;;42.47;27.90;;;;;;;;;;5024935;28;20491;-69
2022/03/24 11:20:46;;;;;;;43.92;26.65;;;;;;;;;;5022840;28;20037;-70
2022/03/24 11:23:31;;;;;;;44.97;29.10;;;;;;;;;;5027692;28;20033;-70
2022/03/24 11:25:57;;;;;;;43.50;28.77;;;;;;;;;;5027866;28;20033;-70
2022/03/24 11:28:24;;;;;;;40.03;27.83;;;;;;;;;;5028554;28;20065;-69
2022/03/24 11:30:51;;;;;;;45.13;26.35;;;;;;;;;;5025617;28;20103;-69
2022/03/24 11:33:17;;;;;;;41.80;25.70;;;;;;;;;;5028320;28;20029;-69
2022/03/24 11:35:43;;;;;;;42.28;25.40;;;;;;;;;;5026349;28;20069;-70
2022/03/24 11:38:10;;;;;;;38.72;25.10;;;;;;;;;;5025100;28;20033;-69
2022/03/24 11:40:36;;;;;;;41.88;25.15;;;;;;;;;;5027923;28;20033;-70
2022/03/24 11:43:10;;;;;;;45.53;24.42;;;;;;;;;;5026165;28;20040;-70
2022/03/24 11:46:05;;;;;;;49.80;24.88;;;;;;;;;;5027669;28;20038;-69
2022/03/24 11:48:34;;;;;;;45.65;25.65;;;;;;;;;;5023012;28;20037;-69
2022/03/24 11:51:04;;;;;;;47.10;25.33;;;;;;;;;;5026746;28;20037;-69
2022/03/24 11:53:35;;;;;;;41.10;25.70;;;;;;;;;;5028339;28;20033;-69
2022/03/24 11:56:04;;;;;;;40.45;24.40;;;;;;;;;;5026452;28;20036;-70
2022/03/24 11:58:36;;;;;;;41.70;24.83;;;;;;;;;;5027697;28;20029;-69
2022/03/24 12:01:20;;;;;;;47.22;23.95;;;;;;;;;;5027534;28;20037;-69
2022/03/24 12:03:59;;;;;;;42.13;22.92;;;;;;;;;;5023553;28;20037;-70
2022/03/24 12:06:43;;;;;;;35.95;22.67;;;;;;;;;;5021550;28;20087;-69
2022/03/24 12:09:38;;;;;;;47.53;23.10;;;;;;;;;;5026483;28;20513;-70
2022/03/24 12:12:06;;;;;;;44.88;21.88;;;;;;;;;;5026323;28;20054;-70
2022/03/24 12:14:36;;;;;;;40.20;23.25;;;;;;;;;;5027123;28;20039;-70
2022/03/24 12:17:07;;;;;;;37.85;21.13;;;;;;;;;;5027039;28;20121;-70
2022/03/24 12:19:36;;;;;;;43.53;23.33;;;;;;;;;;5026464;28;20076;-70
2022/03/24 12:22:22;;;;;;;46.03;23.83;;;;;;;;;;5022554;28;20075;-70
2022/03/24 12:24:49;;;;;;;44.95;22.00;;;;;;;;;;5024726;28;20091;-69
2022/03/24 12:27:16;;;;;;;46.83;23.55;;;;;;;;;;5027116;28;20116;-69
2022/03/24 12:29:42;;;;;;;38.55;22.42;;;;;;;;;;5029414;28;20483;-69
2022/03/24 12:32:10;;;;;;;39.08;22.25;;;;;;;;;;5028568;28;20040;-68
2022/03/24 12:34:38;;;;;;;44.15;22.08;;;;;;;;;;5027077;28;20052;-69
2022/03/24 12:37:06;;;;;;;45.08;22.10;;;;;;;;;;5029624;28;20060;-69
2022/03/24 12:39:31;;;;;;;42.08;22.88;;;;;;;;;;5030679;28;20040;-69
2022/03/24 12:42:08;;;;;;;42.45;22.63;;;;;;;;;;5029971;28;20056;-70
2022/03/24 12:44:53;;;;;;;48.05;24.23;;;;;;;;;;5016888;28;20112;-69
2022/03/24 12:47:35;;;;;;;45.42;22.58;;;;;;;;;;5028802;28;20053;-70
2022/03/24 12:50:09;;;;;;;37.30;21.65;;;;;;;;;;5029917;28;20029;-69
2022/03/24 12:52:55;;;;;;;40.10;22.75;;;;;;;;;;5029615;28;20029;-69
2022/03/24 12:55:21;;;;;;;35.67;21.27;;;;;;;;;;5029327;28;20029;-69
2022/03/24 12:57:57;;;;;;;38.90;21.08;;;;;;;;;;5029539;28;20482;-68
2022/03/24 13:00:27;;;;;;;42.90;21.58;;;;;;;;;;5024561;28;20031;-69
2022/03/24 13:02:53;;;;;;;;;;;;;;;;;;5029729;28;20037;-69
2022/03/24 13:05:24;;;;;;;40.22;22.45;;;;;;;;;;5029729;28;19909;-70
2022/03/24 13:07:52;;;;;;;42.65;22.88;;;;;;;;;;5029612;28;20087;-70
2022/03/24 13:10:18;;;;;;;44.50;23.70;;;;;;;;;;5028653;28;20044;-70
2022/03/24 13:12:49;;;;;;;39.83;23.02;;;;;;;;;;5030641;28;20037;-70
2022/03/24 13:15:22;;;;;;;41.25;23.67;;;;;;;;;;5029925;28;20026;-70
2022/03/24 13:17:50;;;;;;;43.70;24.27;;;;;;;;;;5024126;28;20028;-69
2022/03/24 13:20:16;;;;;;;41.55;24.33;;;;;;;;;;5026062;28;20065;-67
2022/03/24 13:22:45;;;;;;;43.22;23.80;;;;;;;;;;5030260;28;20036;-69
2022/03/24 13:25:11;;;;;;;40.67;22.95;;;;;;;;;;5027990;28;20108;-69
2022/03/24 13:27:43;;;;;;;39.60;23.35;;;;;;;;;;5029050;28;20033;-69
2022/03/24 13:30:10;;;;;;;48.15;22.75;;;;;;;;;;5030046;28;20022;-69
2022/03/24 13:32:37;;;;;;;41.35;22.15;;;;;;;;;;5030620;28;20041;-69
2022/03/24 13:35:08;;;;;;;45.33;23.83;;;;;;;;;;5026349;28;20057;-70
2022/03/24 13:37:35;;;;;;;41.03;23.92;;;;;;;;;;5029110;28;20399;-70
2022/03/24 13:40:02;;;;;;;40.50;23.85;;;;;;;;;;5029325;28;20059;-70
2022/03/24 13:42:28;;;;;;;42.85;23.80;;;;;;;;;;5029730;28;20021;-69
2022/03/24 13:44:54;;;;;;;40.58;24.33;;;;;;;;;;5028712;28;20112;-70
2022/03/24 13:47:23;;;;;;;50.08;24.13;;;;;;;;;;5030146;28;20093;-69
2022/03/24 13:49:52;;;;;;;39.92;22.20;;;;;;;;;;5029213;28;20108;-70
2022/03/24 13:52:31;;;;;;;41.50;22.17;;;;;;;;;;5029919;28;20535;-69
2022/03/24 13:55:02;;;;;;;40.58;23.08;;;;;;;;;;5028047;28;20506;-70
2022/03/24 13:57:28;;;;;;;39.25;23.38;;;;;;;;;;5029282;28;20059;-70
2022/03/24 13:59:54;;;;;;;49.17;22.13;;;;;;;;;;5029675;28;20490;-70
2022/03/24 14:02:27;;;;;;;36.25;22.65;;;;;;;;;;5027554;28;20036;-70
2022/03/24 14:05:14;;;;;;;39.30;23.23;;;;;;;;;;5029181;28;20033;-70
2022/03/24 14:07:59;;;;;;;45.95;23.52;;;;;;;;;;5027913;28;20036;-70
2022/03/24 14:10:44;;;;;;;41.10;22.40;;;;;;;;;;5029467;28;20091;-68
2022/03/24 14:13:20;;;;;;;45.42;24.23;;;;;;;;;;5016973;28;20486;-69
2022/03/24 14:15:46;;;;;;;42.75;26.05;;;;;;;;;;5028925;28;20039;-70